Wednesday, December 12, 2018, 11:43 PM EST
Back to Local

KTAN, Taunton Municipal Airport

Location: East Taunton, MA, United States Lat: 41.883
Local Time: 11:43 PM EST ( 4:43 GMT) Lon: -71.017
Time Zone: US/Eastern Elev: 42 ft

Show me the last for .
Show Coded

Time T Td Feel RH Dir Speed Gust Alt SLP Vis Weather Sky Remarks
2018-12-12 22:52 19 6 - 56 - Calm - 30.32 30.32 10 CLR None
2018-12-12 21:52 23 5 - 45 - Calm - 30.30 30.30 10 CLR None
2018-12-12 20:52 28 4 23 34 330° 5 - 30.27 30.27 10 CLR None
2018-12-12 19:52 29 4 23 33 360° 6 - 30.24 30.24 10 CLR None
2018-12-12 18:52 31 10 23 41 330° 8 - 30.20 30.20 10 CLR 6-hr Min Temp (7pm): 28.9°F
6-hr Max Temp (7pm): 39.0°F
2018-12-12 17:52 30 13 26 48 320° 3 - 30.18 30.18 10 CLR None
2018-12-12 16:52 33 13 28 42 320° 6 - 30.14 30.14 10 CLR None
2018-12-12 15:52 36 12 26 36 320° 10 18 30.10 30.10 10 CLR None
2018-12-12 14:52 38 12 28 33 300° 9 18 30.06 30.06 10 CLR None
2018-12-12 13:52 39 12 29 32 330° 10 20 30.04 30.04 10 CLR None
2018-12-12 12:52 37 14 26 38 340° 13 22 30.03 30.03 10 BKN050 6-hr Min Temp (1pm): 27.0°F
6-hr Max Temp (1pm): 39.0°F
2018-12-12 11:52 37 16 27 41 310° 14 20 30.03 30.03 10 CLR None
2018-12-12 10:52 36 18 25 47 300° 10 22 30.02 30.02 10 CLR None
2018-12-12 09:52 34 19 28 53 330° 7 - 30.02 30.02 10 CLR None
2018-12-12 08:52 30 17 24 58 300° 6 - 30.01 30.01 10 OVC075 None
2018-12-12 07:52 28 17 24 62 300° 3 - 29.99 29.99 10 FEW080 None
2018-12-12 06:52 28 16 23 60 290° 5 - 29.96 29.96 10 OVC080 6-hr Min Temp (7am): 27.0°F
6-hr Max Temp (7am): 32.0°F
2018-12-12 05:52 28 16 22 60 310° 6 - 29.94 29.93 10 CLR None
2018-12-12 04:52 30 17 22 58 310° 8 - 29.91 29.91 10 SCT060 None
2018-12-12 03:52 31 17 25 55 320° 6 - 29.88 29.88 10 BKN065 None
2018-12-12 02:52 32 17 26 53 330° 6 - 29.88 29.88 10 OVC060 None
2018-12-12 01:52 32 21 27 63 320° 5 - 29.88 29.88 10 OVC055 None
2018-12-12 00:52 31 25 - 78 - Calm - 29.87 29.87 10 OVC049 6-hr Min Temp (1am): 30.9°F
6-hr Max Temp (1am): 33.1°F
2018-12-12 00:06 32 25 - 74 - Calm - 29.89 - 10 SCT024 OVC047 None
2018-12-11 23:52 32 25 - 74 - Calm - 29.89 29.89 10 BKN024 BKN031 OVC042 24-hr Min Temp (12am): 10.9°F
24-hr Max Temp (12am): 39.0°F

Support USWX by starting your Amazon purchase here.